sensor_id;sensor_type;location;lat;lon;timestamp;P1;durP1;ratioP1;P2;durP2;ratioP2
13687;SDS011;6916;51.504;7.416;2022-11-13T00:03:58;9.77;;;6.57;;
13687;SDS011;6916;51.504;7.416;2022-11-13T00:09:38;7.30;;;5.87;;
13687;SDS011;6916;51.504;7.416;2022-11-13T00:15:19;8.80;;;5.43;;
13687;SDS011;6916;51.504;7.416;2022-11-13T00:21:08;9.07;;;5.53;;
13687;SDS011;6916;51.504;7.416;2022-11-13T00:26:51;6.40;;;4.93;;
13687;SDS011;6916;51.504;7.416;2022-11-13T00:32:31;5.77;;;4.93;;
13687;SDS011;6916;51.504;7.416;2022-11-13T00:38:12;6.73;;;5.20;;
13687;SDS011;6916;51.504;7.416;2022-11-13T00:43:52;7.60;;;4.77;;
13687;SDS011;6916;51.504;7.416;2022-11-13T00:49:33;6.80;;;4.63;;
13687;SDS011;6916;51.504;7.416;2022-11-13T00:55:14;8.13;;;5.00;;
13687;SDS011;6916;51.504;7.416;2022-11-13T01:00:54;7.67;;;5.67;;
13687;SDS011;6916;51.504;7.416;2022-11-13T01:06:34;7.03;;;5.83;;
13687;SDS011;6916;51.504;7.416;2022-11-13T01:12:15;8.17;;;5.67;;
13687;SDS011;6916;51.504;7.416;2022-11-13T01:17:56;8.33;;;5.97;;
13687;SDS011;6916;51.504;7.416;2022-11-13T01:23:37;7.27;;;5.67;;
13687;SDS011;6916;51.504;7.416;2022-11-13T01:29:17;7.37;;;5.67;;
13687;SDS011;6916;51.504;7.416;2022-11-13T01:34:58;7.10;;;5.60;;
13687;SDS011;6916;51.504;7.416;2022-11-13T01:40:45;6.17;;;5.10;;
13687;SDS011;6916;51.504;7.416;2022-11-13T01:47:00;6.03;;;4.73;;
13687;SDS011;6916;51.504;7.416;2022-11-13T01:52:35;6.67;;;4.73;;
13687;SDS011;6916;51.504;7.416;2022-11-13T01:58:17;4.67;;;4.27;;
13687;SDS011;6916;51.504;7.416;2022-11-13T02:03:58;6.00;;;5.03;;
13687;SDS011;6916;51.504;7.416;2022-11-13T02:09:39;7.03;;;5.00;;
13687;SDS011;6916;51.504;7.416;2022-11-13T02:15:22;6.73;;;4.53;;
13687;SDS011;6916;51.504;7.416;2022-11-13T02:26:57;5.70;;;4.67;;
13687;SDS011;6916;51.504;7.416;2022-11-13T02:32:47;6.10;;;5.27;;
13687;SDS011;6916;51.504;7.416;2022-11-13T02:38:31;8.10;;;6.10;;
13687;SDS011;6916;51.504;7.416;2022-11-13T02:44:12;8.87;;;6.40;;
13687;SDS011;6916;51.504;7.416;2022-11-13T02:49:53;8.43;;;6.03;;
13687;SDS011;6916;51.504;7.416;2022-11-13T02:55:34;6.97;;;5.43;;
13687;SDS011;6916;51.504;7.416;2022-11-13T03:01:14;6.40;;;5.53;;
13687;SDS011;6916;51.504;7.416;2022-11-13T03:06:55;6.83;;;5.83;;
13687;SDS011;6916;51.504;7.416;2022-11-13T03:12:35;6.83;;;5.33;;
13687;SDS011;6916;51.504;7.416;2022-11-13T03:18:16;7.77;;;5.77;;
13687;SDS011;6916;51.504;7.416;2022-11-13T03:23:56;5.83;;;4.90;;
13687;SDS011;6916;51.504;7.416;2022-11-13T03:29:37;8.20;;;6.37;;
13687;SDS011;6916;51.504;7.416;2022-11-13T03:35:17;7.77;;;5.50;;
13687;SDS011;6916;51.504;7.416;2022-11-13T03:40:58;6.10;;;5.50;;
13687;SDS011;6916;51.504;7.416;2022-11-13T03:46:38;8.77;;;5.70;;
13687;SDS011;6916;51.504;7.416;2022-11-13T03:52:19;7.63;;;5.53;;
13687;SDS011;6916;51.504;7.416;2022-11-13T03:58:00;9.63;;;5.33;;
13687;SDS011;6916;51.504;7.416;2022-11-13T04:03:40;6.77;;;5.77;;
13687;SDS011;6916;51.504;7.416;2022-11-13T04:09:21;7.07;;;5.70;;
13687;SDS011;6916;51.504;7.416;2022-11-13T04:15:01;7.47;;;6.20;;
13687;SDS011;6916;51.504;7.416;2022-11-13T04:20:42;7.93;;;5.83;;
13687;SDS011;6916;51.504;7.416;2022-11-13T04:26:22;7.33;;;5.00;;
13687;SDS011;6916;51.504;7.416;2022-11-13T04:32:03;5.87;;;5.17;;
13687;SDS011;6916;51.504;7.416;2022-11-13T04:37:43;6.40;;;5.70;;
13687;SDS011;6916;51.504;7.416;2022-11-13T04:43:24;7.77;;;5.10;;
13687;SDS011;6916;51.504;7.416;2022-11-13T04:49:05;6.83;;;5.20;;
13687;SDS011;6916;51.504;7.416;2022-11-13T04:54:46;6.77;;;5.27;;
13687;SDS011;6916;51.504;7.416;2022-11-13T05:00:27;8.37;;;5.30;;
13687;SDS011;6916;51.504;7.416;2022-11-13T05:06:08;9.50;;;5.83;;
13687;SDS011;6916;51.504;7.416;2022-11-13T05:11:49;8.13;;;5.90;;
13687;SDS011;6916;51.504;7.416;2022-11-13T05:17:29;6.97;;;5.80;;
13687;SDS011;6916;51.504;7.416;2022-11-13T05:23:10;6.70;;;5.47;;
13687;SDS011;6916;51.504;7.416;2022-11-13T05:28:51;7.23;;;5.47;;
13687;SDS011;6916;51.504;7.416;2022-11-13T05:34:31;7.17;;;5.40;;
13687;SDS011;6916;51.504;7.416;2022-11-13T05:40:12;6.83;;;4.90;;
13687;SDS011;6916;51.504;7.416;2022-11-13T05:46:00;6.50;;;5.80;;
13687;SDS011;6916;51.504;7.416;2022-11-13T05:51:41;6.07;;;5.23;;
13687;SDS011;6916;51.504;7.416;2022-11-13T05:57:22;6.00;;;5.20;;
13687;SDS011;6916;51.504;7.416;2022-11-13T06:03:02;7.10;;;4.97;;
13687;SDS011;6916;51.504;7.416;2022-11-13T06:08:43;6.40;;;4.83;;
13687;SDS011;6916;51.504;7.416;2022-11-13T06:14:24;6.93;;;5.30;;
13687;SDS011;6916;51.504;7.416;2022-11-13T06:20:05;5.90;;;4.97;;
13687;SDS011;6916;51.504;7.416;2022-11-13T06:25:46;6.80;;;5.67;;
13687;SDS011;6916;51.504;7.416;2022-11-13T06:31:28;6.37;;;4.90;;
13687;SDS011;6916;51.504;7.416;2022-11-13T06:37:10;6.63;;;5.00;;
13687;SDS011;6916;51.504;7.416;2022-11-13T06:42:51;5.90;;;4.87;;
13687;SDS011;6916;51.504;7.416;2022-11-13T06:48:32;7.40;;;5.40;;
13687;SDS011;6916;51.504;7.416;2022-11-13T06:54:12;6.53;;;4.93;;
13687;SDS011;6916;51.504;7.416;2022-11-13T06:59:53;7.73;;;5.20;;
13687;SDS011;6916;51.504;7.416;2022-11-13T07:05:37;6.77;;;5.20;;
13687;SDS011;6916;51.504;7.416;2022-11-13T07:11:18;5.73;;;5.17;;
13687;SDS011;6916;51.504;7.416;2022-11-13T07:17:00;6.87;;;6.00;;
13687;SDS011;6916;51.504;7.416;2022-11-13T07:22:41;6.93;;;5.50;;
13687;SDS011;6916;51.504;7.416;2022-11-13T07:28:21;6.90;;;5.30;;
13687;SDS011;6916;51.504;7.416;2022-11-13T07:34:01;8.97;;;5.70;;
13687;SDS011;6916;51.504;7.416;2022-11-13T07:39:42;5.70;;;5.20;;
13687;SDS011;6916;51.504;7.416;2022-11-13T07:45:22;7.07;;;5.67;;
13687;SDS011;6916;51.504;7.416;2022-11-13T07:51:03;6.70;;;5.00;;
13687;SDS011;6916;51.504;7.416;2022-11-13T07:56:43;6.43;;;5.70;;
13687;SDS011;6916;51.504;7.416;2022-11-13T08:02:26;7.13;;;6.13;;
13687;SDS011;6916;51.504;7.416;2022-11-13T08:08:07;8.40;;;6.03;;
13687;SDS011;6916;51.504;7.416;2022-11-13T08:13:50;10.00;;;6.33;;
13687;SDS011;6916;51.504;7.416;2022-11-13T08:19:31;6.33;;;4.97;;
13687;SDS011;6916;51.504;7.416;2022-11-13T08:25:14;7.10;;;6.03;;
13687;SDS011;6916;51.504;7.416;2022-11-13T08:30:55;6.63;;;5.73;;
13687;SDS011;6916;51.504;7.416;2022-11-13T08:36:35;5.70;;;5.10;;
13687;SDS011;6916;51.504;7.416;2022-11-13T08:42:16;9.50;;;6.90;;
13687;SDS011;6916;51.504;7.416;2022-11-13T08:48:00;9.63;;;7.60;;
13687;SDS011;6916;51.504;7.416;2022-11-13T08:53:41;8.03;;;7.00;;
13687;SDS011;6916;51.504;7.416;2022-11-13T08:59:22;8.77;;;7.13;;
13687;SDS011;6916;51.504;7.416;2022-11-13T09:05:03;9.30;;;6.23;;
13687;SDS011;6916;51.504;7.416;2022-11-13T09:10:43;7.63;;;6.83;;
13687;SDS011;6916;51.504;7.416;2022-11-13T09:16:24;10.43;;;7.20;;
13687;SDS011;6916;51.504;7.416;2022-11-13T09:22:04;8.63;;;7.10;;
13687;SDS011;6916;51.504;7.416;2022-11-13T09:27:50;6.93;;;6.23;;
13687;SDS011;6916;51.504;7.416;2022-11-13T09:33:35;6.70;;;6.00;;
13687;SDS011;6916;51.504;7.416;2022-11-13T09:39:16;7.20;;;6.10;;
13687;SDS011;6916;51.504;7.416;2022-11-13T09:44:59;7.57;;;6.27;;
13687;SDS011;6916;51.504;7.416;2022-11-13T09:50:44;8.43;;;6.10;;
13687;SDS011;6916;51.504;7.416;2022-11-13T09:56:38;5.40;;;4.90;;
13687;SDS011;6916;51.504;7.416;2022-11-13T10:02:36;4.28;;;3.78;;
13687;SDS011;6916;51.504;7.416;2022-11-13T10:14:30;5.17;;;4.70;;
13687;SDS011;6916;51.504;7.416;2022-11-13T10:20:23;7.87;;;5.33;;
13687;SDS011;6916;51.504;7.416;2022-11-13T10:26:19;5.90;;;4.80;;
13687;SDS011;6916;51.504;7.416;2022-11-13T10:38:18;5.63;;;4.63;;
13687;SDS011;6916;51.504;7.416;2022-11-13T10:44:04;4.67;;;3.80;;
13687;SDS011;6916;51.504;7.416;2022-11-13T10:49:48;4.97;;;3.57;;
13687;SDS011;6916;51.504;7.416;2022-11-13T11:01:22;5.67;;;3.60;;
13687;SDS011;6916;51.504;7.416;2022-11-13T11:07:03;4.93;;;4.40;;
13687;SDS011;6916;51.504;7.416;2022-11-13T11:12:53;4.43;;;4.03;;
13687;SDS011;6916;51.504;7.416;2022-11-13T11:18:37;6.13;;;4.10;;
13687;SDS011;6916;51.504;7.416;2022-11-13T11:24:23;6.35;;;3.78;;
13687;SDS011;6916;51.504;7.416;2022-11-13T11:30:20;6.18;;;4.00;;
13687;SDS011;6916;51.504;7.416;2022-11-13T11:36:12;5.00;;;3.30;;
13687;SDS011;6916;51.504;7.416;2022-11-13T11:48:25;3.00;;;2.10;;
13687;SDS011;6916;51.504;7.416;2022-11-13T12:05:53;3.13;;;2.38;;
13687;SDS011;6916;51.504;7.416;2022-11-13T12:12:11;2.78;;;2.58;;
13687;SDS011;6916;51.504;7.416;2022-11-13T12:18:00;11.52;;;7.68;;
13687;SDS011;6916;51.504;7.416;2022-11-13T12:29:50;3.90;;;3.50;;
13687;SDS011;6916;51.504;7.416;2022-11-13T12:36:01;6.15;;;3.40;;
13687;SDS011;6916;51.504;7.416;2022-11-13T12:41:46;3.63;;;3.33;;
13687;SDS011;6916;51.504;7.416;2022-11-13T12:47:29;3.38;;;3.00;;
13687;SDS011;6916;51.504;7.416;2022-11-13T12:53:11;3.30;;;2.70;;
13687;SDS011;6916;51.504;7.416;2022-11-13T13:04:53;2.38;;;2.00;;
13687;SDS011;6916;51.504;7.416;2022-11-13T13:16:45;2.85;;;2.47;;
13687;SDS011;6916;51.504;7.416;2022-11-13T13:22:30;3.03;;;2.63;;
13687;SDS011;6916;51.504;7.416;2022-11-13T13:28:15;3.22;;;2.42;;
13687;SDS011;6916;51.504;7.416;2022-11-13T13:46:16;2.03;;;1.70;;
13687;SDS011;6916;51.504;7.416;2022-11-13T13:52:00;4.30;;;2.60;;
13687;SDS011;6916;51.504;7.416;2022-11-13T13:57:41;2.87;;;2.20;;
13687;SDS011;6916;51.504;7.416;2022-11-13T14:03:22;4.15;;;2.65;;
13687;SDS011;6916;51.504;7.416;2022-11-13T14:09:16;1.92;;;1.73;;
13687;SDS011;6916;51.504;7.416;2022-11-13T14:14:58;1.87;;;1.53;;
13687;SDS011;6916;51.504;7.416;2022-11-13T14:26:27;2.67;;;1.90;;
13687;SDS011;6916;51.504;7.416;2022-11-13T14:32:09;2.97;;;1.80;;
13687;SDS011;6916;51.504;7.416;2022-11-13T14:37:53;4.00;;;2.00;;
13687;SDS011;6916;51.504;7.416;2022-11-13T14:43:34;3.90;;;1.40;;
13687;SDS011;6916;51.504;7.416;2022-11-13T14:49:28;2.78;;;1.48;;
13687;SDS011;6916;51.504;7.416;2022-11-13T14:55:20;2.90;;;1.97;;
13687;SDS011;6916;51.504;7.416;2022-11-13T15:01:13;2.07;;;1.77;;
13687;SDS011;6916;51.504;7.416;2022-11-13T15:06:56;2.93;;;1.90;;
13687;SDS011;6916;51.504;7.416;2022-11-13T15:12:39;3.73;;;2.47;;
13687;SDS011;6916;51.504;7.416;2022-11-13T15:18:20;3.30;;;2.10;;
13687;SDS011;6916;51.504;7.416;2022-11-13T15:24:00;3.93;;;2.77;;
13687;SDS011;6916;51.504;7.416;2022-11-13T15:29:41;4.50;;;2.73;;
13687;SDS011;6916;51.504;7.416;2022-11-13T15:35:23;4.50;;;2.70;;
13687;SDS011;6916;51.504;7.416;2022-11-13T15:41:13;9.07;;;3.73;;
13687;SDS011;6916;51.504;7.416;2022-11-13T15:46:55;9.50;;;3.40;;
13687;SDS011;6916;51.504;7.416;2022-11-13T15:52:38;4.33;;;2.90;;
13687;SDS011;6916;51.504;7.416;2022-11-13T15:58:19;6.13;;;2.97;;
13687;SDS011;6916;51.504;7.416;2022-11-13T16:04:00;4.83;;;3.47;;
13687;SDS011;6916;51.504;7.416;2022-11-13T16:09:42;6.93;;;3.30;;
13687;SDS011;6916;51.504;7.416;2022-11-13T16:15:23;5.90;;;4.00;;
13687;SDS011;6916;51.504;7.416;2022-11-13T16:21:04;14.27;;;10.50;;
13687;SDS011;6916;51.504;7.416;2022-11-13T16:26:46;14.33;;;6.33;;
13687;SDS011;6916;51.504;7.416;2022-11-13T16:32:28;12.50;;;8.30;;
13687;SDS011;6916;51.504;7.416;2022-11-13T16:38:10;7.60;;;6.50;;
13687;SDS011;6916;51.504;7.416;2022-11-13T16:43:52;9.07;;;7.03;;
13687;SDS011;6916;51.504;7.416;2022-11-13T16:49:32;9.73;;;7.07;;
13687;SDS011;6916;51.504;7.416;2022-11-13T16:55:13;24.47;;;14.27;;
13687;SDS011;6916;51.504;7.416;2022-11-13T17:00:55;34.40;;;21.00;;
13687;SDS011;6916;51.504;7.416;2022-11-13T17:06:36;23.90;;;17.10;;
13687;SDS011;6916;51.504;7.416;2022-11-13T17:12:16;24.40;;;16.33;;
13687;SDS011;6916;51.504;7.416;2022-11-13T17:17:57;19.30;;;12.63;;
13687;SDS011;6916;51.504;7.416;2022-11-13T17:23:38;26.23;;;16.17;;
13687;SDS011;6916;51.504;7.416;2022-11-13T17:29:18;51.33;;;30.57;;
13687;SDS011;6916;51.504;7.416;2022-11-13T17:34:59;46.63;;;25.47;;
13687;SDS011;6916;51.504;7.416;2022-11-13T17:40:40;33.97;;;21.63;;
13687;SDS011;6916;51.504;7.416;2022-11-13T17:46:20;32.77;;;19.47;;
13687;SDS011;6916;51.504;7.416;2022-11-13T17:52:01;31.97;;;17.83;;
13687;SDS011;6916;51.504;7.416;2022-11-13T17:57:41;24.57;;;14.73;;
13687;SDS011;6916;51.504;7.416;2022-11-13T18:03:22;16.20;;;11.17;;
13687;SDS011;6916;51.504;7.416;2022-11-13T18:09:02;21.70;;;12.90;;
13687;SDS011;6916;51.504;7.416;2022-11-13T18:14:43;25.93;;;16.03;;
13687;SDS011;6916;51.504;7.416;2022-11-13T18:20:23;24.23;;;14.83;;
13687;SDS011;6916;51.504;7.416;2022-11-13T18:26:08;20.83;;;11.63;;
13687;SDS011;6916;51.504;7.416;2022-11-13T18:31:50;9.00;;;6.30;;
13687;SDS011;6916;51.504;7.416;2022-11-13T18:37:30;13.60;;;9.00;;
13687;SDS011;6916;51.504;7.416;2022-11-13T18:43:11;14.47;;;8.97;;
13687;SDS011;6916;51.504;7.416;2022-11-13T18:48:53;13.50;;;8.87;;
13687;SDS011;6916;51.504;7.416;2022-11-13T18:54:35;15.50;;;10.50;;
13687;SDS011;6916;51.504;7.416;2022-11-13T19:00:15;14.67;;;8.63;;
13687;SDS011;6916;51.504;7.416;2022-11-13T19:05:57;15.97;;;10.77;;
13687;SDS011;6916;51.504;7.416;2022-11-13T19:11:37;14.27;;;10.87;;
13687;SDS011;6916;51.504;7.416;2022-11-13T19:17:18;14.97;;;9.80;;
13687;SDS011;6916;51.504;7.416;2022-11-13T19:22:59;15.60;;;9.33;;
13687;SDS011;6916;51.504;7.416;2022-11-13T19:28:39;12.77;;;8.37;;
13687;SDS011;6916;51.504;7.416;2022-11-13T19:34:20;13.13;;;7.70;;
13687;SDS011;6916;51.504;7.416;2022-11-13T19:40:01;10.40;;;6.10;;
13687;SDS011;6916;51.504;7.416;2022-11-13T19:45:42;11.07;;;5.67;;
13687;SDS011;6916;51.504;7.416;2022-11-13T19:51:23;7.60;;;5.20;;
13687;SDS011;6916;51.504;7.416;2022-11-13T19:57:04;6.10;;;3.90;;
13687;SDS011;6916;51.504;7.416;2022-11-13T20:02:45;6.83;;;4.67;;
13687;SDS011;6916;51.504;7.416;2022-11-13T20:08:26;5.17;;;4.67;;
13687;SDS011;6916;51.504;7.416;2022-11-13T20:14:08;8.13;;;5.03;;
13687;SDS011;6916;51.504;7.416;2022-11-13T20:19:49;7.40;;;5.13;;
13687;SDS011;6916;51.504;7.416;2022-11-13T20:25:30;8.40;;;6.07;;
13687;SDS011;6916;51.504;7.416;2022-11-13T20:36:59;8.43;;;5.40;;
13687;SDS011;6916;51.504;7.416;2022-11-13T20:42:40;6.87;;;5.43;;
13687;SDS011;6916;51.504;7.416;2022-11-13T20:48:21;7.63;;;6.23;;
13687;SDS011;6916;51.504;7.416;2022-11-13T20:54:01;9.17;;;6.63;;
13687;SDS011;6916;51.504;7.416;2022-11-13T20:59:42;8.83;;;5.67;;
13687;SDS011;6916;51.504;7.416;2022-11-13T21:05:23;7.00;;;5.83;;
13687;SDS011;6916;51.504;7.416;2022-11-13T21:11:04;5.93;;;5.30;;
13687;SDS011;6916;51.504;7.416;2022-11-13T21:16:47;9.00;;;5.60;;
13687;SDS011;6916;51.504;7.416;2022-11-13T21:22:27;7.63;;;5.80;;
13687;SDS011;6916;51.504;7.416;2022-11-13T21:28:08;11.60;;;5.57;;
13687;SDS011;6916;51.504;7.416;2022-11-13T21:33:49;7.97;;;5.33;;
13687;SDS011;6916;51.504;7.416;2022-11-13T21:39:30;6.00;;;4.70;;
13687;SDS011;6916;51.504;7.416;2022-11-13T21:45:11;4.87;;;4.33;;
13687;SDS011;6916;51.504;7.416;2022-11-13T21:50:52;4.40;;;4.00;;
13687;SDS011;6916;51.504;7.416;2022-11-13T21:56:34;5.60;;;4.00;;
13687;SDS011;6916;51.504;7.416;2022-11-13T22:02:15;5.80;;;4.13;;
13687;SDS011;6916;51.504;7.416;2022-11-13T22:07:57;7.27;;;5.27;;
13687;SDS011;6916;51.504;7.416;2022-11-13T22:13:37;6.37;;;4.70;;
13687;SDS011;6916;51.504;7.416;2022-11-13T22:19:19;6.43;;;4.90;;
13687;SDS011;6916;51.504;7.416;2022-11-13T22:24:59;5.27;;;4.53;;
13687;SDS011;6916;51.504;7.416;2022-11-13T22:30:40;6.40;;;4.73;;
13687;SDS011;6916;51.504;7.416;2022-11-13T22:36:22;4.83;;;4.33;;
13687;SDS011;6916;51.504;7.416;2022-11-13T22:42:03;5.20;;;4.70;;
13687;SDS011;6916;51.504;7.416;2022-11-13T22:47:44;5.97;;;4.50;;
13687;SDS011;6916;51.504;7.416;2022-11-13T22:53:25;6.03;;;4.87;;
13687;SDS011;6916;51.504;7.416;2022-11-13T22:59:06;8.33;;;5.00;;
13687;SDS011;6916;51.504;7.416;2022-11-13T23:04:49;5.90;;;4.80;;
13687;SDS011;6916;51.504;7.416;2022-11-13T23:10:29;5.67;;;5.07;;
13687;SDS011;6916;51.504;7.416;2022-11-13T23:16:10;6.47;;;5.30;;
13687;SDS011;6916;51.504;7.416;2022-11-13T23:21:51;6.07;;;5.10;;
13687;SDS011;6916;51.504;7.416;2022-11-13T23:27:31;7.47;;;4.93;;
13687;SDS011;6916;51.504;7.416;2022-11-13T23:33:12;6.20;;;5.17;;
13687;SDS011;6916;51.504;7.416;2022-11-13T23:38:53;18.23;;;5.60;;
13687;SDS011;6916;51.504;7.416;2022-11-13T23:44:34;5.63;;;5.03;;
13687;SDS011;6916;51.504;7.416;2022-11-13T23:50:14;6.57;;;5.10;;
13687;SDS011;6916;51.504;7.416;2022-11-13T23:55:55;6.93;;;5.07;;
